Oklahoma City, Oklahoma
Current Conditions -  °F | °C
As of 4:52 PM on Friday 19 Dec 2014 (Local Time) from KOKC Reporting Station
Overcast Overcast  
Wind Chill: 42°   Ceiling: 1000
Heat Index: 42°   Visibility: 10mi
Dew Point: 36°   Wind: 3mph
Humidity: 79%   Direction: 330°NNW
Pressure: 30.19"   Gusts: NA
Location:  35.47°N, 97.52°W
Report Text: KOKC 192252Z 33003KT 10SM OVC010 06/02 A3019 RMK AO2 SLP226 T00560022
Loading
Personal Weather Stations






























Interactive Weather Map New forecast layout! Learn more

10-Day Weather Forecast

Advertisements
Track Severe Weather on mobile